Time;durP1;ratioP1;P1;durP2;ratioP2;P2;SDS_P1;SDS_P2;PMS_P1;PMS_P2;Temp;Humidity;BMP_temperature;BMP_pressure;BME280_temperature;BME280_humidity;BME280_pressure;Samples;Min_cycle;Max_cycle;Signal;HPM_P1;HPM_P2
2021/11/12 06:51:47;;;;;;;;;;;;;;;;;;;;;
2021/11/12 07:01:40;;;;;;;;;;;6.20;92.80;;;;;;6064248;23;20002;-90
2021/11/12 12:41:24;;;;;;;38.92;25.98;;;9.30;91.20;;;;;;6075880;23;20019;-92
2021/11/12 13:23:15;;;;;;;36.05;25.90;;;9.40;90.80;;;;;;6172786;23;20000;-89
2021/11/12 13:26:00;;;;;;;37.28;25.30;;;9.40;90.70;;;;;;6170285;23;20012;-91
2021/11/12 13:28:47;;;;;;;35.58;25.02;;;9.40;90.70;;;;;;6169246;23;20084;-92
2021/11/12 13:31:55;;;;;;;;;;;;;;;;;;;;;
2021/11/12 13:34:21;;;;;;;33.88;24.60;;;9.40;90.70;;;;;;6194859;23;20072;-91
2021/11/12 13:36:50;;;;;;;36.08;24.65;;;9.50;90.80;;;;;;6177140;23;20063;-94
2021/11/12 13:39:18;;;;;;;36.58;24.73;;;9.50;90.70;;;;;;6196856;23;20000;-93
2021/11/12 13:41:55;;;;;;;34.10;24.52;;;9.50;90.80;;;;;;6199115;23;20001;-91
2021/11/12 13:44:32;;;;;;;34.38;24.30;;;9.50;90.80;;;;;;6205631;23;20004;-91
2021/11/12 13:47:03;;;;;;;34.22;24.17;;;9.50;90.70;;;;;;6218677;23;19985;-93
2021/11/12 13:50:09;;;;;;;36.17;24.92;;;9.50;90.70;;;;;;6218998;23;20005;-91
2021/11/12 13:55:30;;;;;;;32.42;23.80;;;9.50;90.70;;;;;;6215203;23;20024;-90
2021/11/12 13:58:39;;;;;;;32.97;23.90;;;9.40;90.60;;;;;;6214844;23;20020;-91
2021/11/12 14:01:26;;;;;;;32.70;24.42;;;9.40;90.60;;;;;;6199074;23;20028;-91
2021/11/12 14:03:55;;;;;;;34.08;23.33;;;9.40;90.70;;;;;;6173607;23;20009;-91
2021/11/12 14:06:55;;;;;;;34.10;24.10;;;9.40;90.70;;;;;;6197982;23;20027;-91
2021/11/12 14:09:32;;;;;;;32.08;22.95;;;9.40;90.70;;;;;;6174579;23;20000;-90
2021/11/12 14:12:19;;;;;;;34.58;24.60;;;9.40;90.80;;;;;;6197395;23;20026;-92
2021/11/12 14:15:28;;;;;;;35.00;23.42;;;9.40;90.70;;;;;;6197570;23;20462;-92
2021/11/12 14:24:03;;;;;;;32.08;23.27;;;9.30;90.80;;;;;;6222566;23;20055;-90
2021/11/12 14:42:31;;;;;;;33.45;23.83;;;9.20;90.90;;;;;;6161918;23;20031;-90
2021/11/12 14:53:20;;;;;;;38.22;24.45;;;9.10;91.00;;;;;;6226085;23;20068;-90
2021/11/12 14:55:51;;;;;;;32.97;23.92;;;9.20;91.10;;;;;;6223733;23;20016;-90
2021/11/12 14:58:24;;;;;;;31.50;23.50;;;9.10;91.10;;;;;;6200257;23;20026;-90
2021/11/12 15:01:17;;;;;;;36.90;25.23;;;9.10;91.10;;;;;;6199002;23;20041;-92
2021/11/12 15:03:46;;;;;;;33.83;24.58;;;9.10;91.20;;;;;;6198593;23;20036;-90
2021/11/12 15:06:31;;;;;;;34.03;24.25;;;9.10;91.10;;;;;;6197555;23;20005;-90
2021/11/12 15:09:05;;;;;;;35.28;24.65;;;9.10;91.20;;;;;;6198062;23;20326;-90
2021/11/12 15:11:49;;;;;;;33.20;24.90;;;9.10;91.20;;;;;;6209161;23;20015;-93
2021/11/12 15:17:44;;;;;;;32.38;24.35;;;9.10;91.30;;;;;;6129030;23;20009;-92
2021/11/12 15:20:12;;;;;;;34.42;24.52;;;9.00;91.30;;;;;;6108342;23;20041;-92
2021/11/12 15:25:39;;;;;;;32.42;24.13;;;9.00;91.30;;;;;;6152609;23;20014;-88
2021/11/12 15:33:24;;;;;;;32.92;23.67;;;9.00;91.40;;;;;;6145926;23;20017;-89
2021/11/12 15:35:51;;;;;;;32.92;22.52;;;8.90;91.40;;;;;;6132322;23;20014;-90
2021/11/12 15:38:21;;;;;;;31.85;23.33;;;8.90;91.40;;;;;;6082059;23;20077;-91
2021/11/12 15:40:55;;;;;;;33.63;23.23;;;8.90;91.40;;;;;;6078048;23;20082;-89
2021/11/12 15:43:40;;;;;;;34.90;23.30;;;8.90;91.50;;;;;;6103929;23;20117;-91
2021/11/12 15:46:10;;;;;;;31.42;22.40;;;8.90;91.50;;;;;;6151422;23;20028;-90
2021/11/12 15:48:39;;;;;;;32.38;23.00;;;8.90;91.50;;;;;;6194523;23;19998;-89
2021/11/12 15:51:22;;;;;;;35.22;23.55;;;8.90;91.50;;;;;;6193097;23;19981;-91
2021/11/12 15:53:57;;;;;;;33.72;21.85;;;8.90;91.50;;;;;;6168018;23;20028;-89
2021/11/12 16:02:33;;;;;;;29.70;21.38;;;8.80;91.60;;;;;;6195097;23;20009;-92
2021/11/12 16:13:19;;;;;;;31.08;21.35;;;8.80;91.70;;;;;;6194901;23;20017;-92
2021/11/12 16:26:32;;;;;;;;;;;;;;;;;;;;;
2021/11/12 16:32:17;;;;;;;;;;;;;;;;;;;;;
2021/11/12 16:35:01;;;;;;;30.88;21.95;;;8.70;91.90;;;;;;6173876;23;20372;-93
2021/11/12 16:37:52;;;;;;;28.83;21.88;;;8.70;92.00;;;;;;6178038;23;20047;-94
2021/11/12 16:46:11;;;;;;;29.00;21.02;;;8.70;92.00;;;;;;6189121;23;20016;-93
2021/11/12 16:48:55;;;;;;;29.73;21.50;;;8.70;92.10;;;;;;6191457;23;20056;-92
2021/11/12 16:54:10;;;;;;;28.55;20.67;;;8.70;92.10;;;;;;6193662;23;20017;-93
2021/11/12 16:59:46;;;;;;;32.10;20.90;;;8.70;92.20;;;;;;6254162;23;19992;-93
2021/11/12 17:02:22;;;;;;;28.15;19.08;;;8.70;92.20;;;;;;6223580;23;19990;-95
2021/11/12 17:05:09;;;;;;;26.85;19.67;;;8.80;92.20;;;;;;6219553;23;19981;-93
2021/11/12 17:10:28;;;;;;;;;;;8.70;92.20;;;;;;6246796;23;20005;-94
2021/11/12 17:13:12;;;;;;;27.48;19.30;;;8.80;92.20;;;;;;6197574;23;19900;-93
2021/11/12 17:15:48;;;;;;;26.10;19.15;;;8.70;92.20;;;;;;6225659;23;20084;-95
2021/11/12 17:18:21;;;;;;;27.77;19.83;;;8.70;92.20;;;;;;6176322;23;20419;-95
2021/11/12 17:23:52;;;;;;;26.05;18.90;;;8.70;92.30;;;;;;6227425;23;20030;-93
2021/11/12 17:47:59;;;;;;;24.77;17.43;;;8.70;92.40;;;;;;6212488;23;20035;-93
2021/11/12 18:06:36;;;;;;;19.38;14.55;;;8.90;92.70;;;;;;6224635;23;20004;-93
2021/11/12 18:12:11;;;;;;;;;;;;;;;;;;;;;
2021/11/12 18:14:57;;;;;;;18.33;14.32;;;9.00;92.50;;;;;;6213906;23;20013;-91
2021/11/12 18:20:56;;;;;;;19.33;13.77;;;9.10;92.40;;;;;;6224193;23;19950;-92
2021/11/12 21:47:39;;;;;;;18.30;10.48;;;9.80;92.70;;;;;;6204212;23;20012;-91
2021/11/12 21:50:06;;;;;;;15.70;11.25;;;9.80;92.80;;;;;;6200669;23;19996;-92
2021/11/12 21:55:29;;;;;;;15.70;10.77;;;9.90;92.80;;;;;;6223414;23;20048;-92
2021/11/12 21:57:59;;;;;;;15.68;11.25;;;9.90;92.90;;;;;;6195866;23;20052;-92
2021/11/12 22:00:27;;;;;;;15.13;11.80;;;9.90;92.90;;;;;;6218080;23;20004;-91
2021/11/12 22:03:00;;;;;;;15.10;11.27;;;9.90;92.90;;;;;;6199921;23;20007;-93
2021/11/12 22:05:30;;;;;;;15.88;11.10;;;9.90;92.90;;;;;;6173364;23;20050;-91
2021/11/12 22:08:03;;;;;;;16.58;12.15;;;9.90;92.90;;;;;;6197841;23;20070;-92
2021/11/12 22:10:31;;;;;;;15.27;11.73;;;10.00;93.00;;;;;;6199091;23;20059;-91
2021/11/12 22:13:23;;;;;;;16.80;11.65;;;10.00;93.10;;;;;;6197178;23;20088;-92
2021/11/12 22:15:54;;;;;;;16.08;12.07;;;10.00;93.10;;;;;;6198442;23;20055;-91
2021/11/12 22:18:30;;;;;;;17.35;11.95;;;10.00;93.10;;;;;;6197960;23;20047;-91
2021/11/12 22:20:56;;;;;;;16.38;11.82;;;10.00;93.10;;;;;;6197271;23;19997;-91
2021/11/12 22:23:29;;;;;;;19.92;12.45;;;10.00;93.10;;;;;;6224231;23;20403;-92
2021/11/12 22:25:55;;;;;;;16.85;12.48;;;10.00;93.20;;;;;;6197626;23;20051;-92
2021/11/12 22:28:28;;;;;;;16.50;12.75;;;10.00;93.20;;;;;;6197520;23;20000;-92
2021/11/12 22:31:16;;;;;;;19.17;12.80;;;10.00;93.20;;;;;;6196895;23;20004;-91
2021/11/12 22:33:47;;;;;;;16.60;11.98;;;10.00;93.30;;;;;;6196393;23;20016;-92
2021/11/12 22:36:36;;;;;;;;;;;;;;;;;;;;;
2021/11/12 22:39:26;;;;;;;16.33;11.90;;;10.10;93.30;;;;;;6223301;23;20435;-92
2021/11/12 22:42:00;;;;;;;15.05;11.35;;;10.10;93.60;;;;;;6197303;23;19997;-91
2021/11/12 22:44:41;;;;;;;19.30;11.65;;;10.10;93.30;;;;;;6196191;23;20043;-91
2021/11/12 22:47:14;;;;;;;;;;;10.20;93.30;;;;;;6196262;23;20040;-92
2021/11/12 22:49:45;;;;;;;17.70;12.15;;;10.10;93.30;;;;;;6196617;23;19922;-92
2021/11/12 22:52:16;;;;;;;16.25;12.35;;;10.10;93.30;;;;;;6195541;23;19987;-92
2021/11/12 22:54:47;;;;;;;19.25;12.55;;;10.10;93.30;;;;;;6172324;23;20012;-91
2021/11/12 22:57:16;;;;;;;;;;;10.10;93.30;;;;;;6195494;23;20080;-93
2021/11/12 22:59:44;;;;;;;17.95;12.30;;;10.10;93.30;;;;;;6221461;23;19911;-91
2021/11/12 23:02:10;;;;;;;17.10;12.02;;;10.10;93.30;;;;;;6195880;23;20004;-91
2021/11/12 23:04:37;;;;;;;17.05;12.57;;;10.10;93.30;;;;;;6196375;23;20051;-92
2021/11/12 23:07:16;;;;;;;;;;;;;;;;;;;;;
2021/11/12 23:09:47;;;;;;;20.15;12.98;;;10.10;93.30;;;;;;6223199;23;20024;-92
2021/11/12 23:12:22;;;;;;;16.05;11.70;;;10.10;93.30;;;;;;6195032;23;20069;-91
2021/11/12 23:14:48;;;;;;;20.38;13.57;;;10.10;93.40;;;;;;6195717;23;20005;-91
2021/11/12 23:17:17;;;;;;;17.83;13.35;;;10.10;93.40;;;;;;6197230;23;20001;-91
2021/11/12 23:19:45;;;;;;;19.80;13.63;;;10.10;93.40;;;;;;6197854;23;20016;-91
2021/11/12 23:22:13;;;;;;;18.83;13.75;;;10.10;93.40;;;;;;6222940;23;20001;-95
2021/11/12 23:24:39;;;;;;;17.02;13.10;;;10.10;93.40;;;;;;6196652;23;20004;-90
2021/11/12 23:27:12;;;;;;;18.48;11.88;;;10.10;93.50;;;;;;6202486;23;19988;-91
2021/11/12 23:29:40;;;;;;;17.45;13.02;;;10.10;93.50;;;;;;6216975;23;20039;-92
2021/11/12 23:32:11;;;;;;;17.48;13.45;;;10.10;93.60;;;;;;6217622;23;20004;-90
2021/11/12 23:34:41;;;;;;;17.13;13.05;;;10.10;93.70;;;;;;6216997;23;19996;-96
2021/11/12 23:40:21;;;;;;;18.27;13.77;;;10.00;93.80;;;;;;6195114;23;20049;-92
2021/11/12 23:42:54;;;;;;;18.02;13.30;;;10.00;93.90;;;;;;6193119;23;20001;-92
2021/11/12 23:45:30;;;;;;;16.48;13.65;;;10.00;94.00;;;;;;6168899;23;20021;-92
2021/11/12 23:47:56;;;;;;;17.05;13.70;;;10.00;94.10;;;;;;6166894;23;20039;-92
2021/11/12 23:50:25;;;;;;;18.17;13.98;;;10.00;94.20;;;;;;6166707;23;20032;-92
2021/11/12 23:52:54;;;;;;;18.65;14.38;;;10.00;94.20;;;;;;6141446;23;20008;-94
2021/11/12 23:55:25;;;;;;;17.08;13.45;;;10.00;94.30;;;;;;6165909;23;20019;-92
2021/11/12 23:57:55;;;;;;;19.67;13.52;;;10.00;94.30;;;;;;6141305;23;20457;-91
